createdAt,value
2019-03-27T00:00:40.758Z,100365.84
2019-03-27T00:10:42.549Z,100376.40
2019-03-27T00:20:49.207Z,100347.16
2019-03-27T00:30:50.174Z,100331.61
2019-03-27T00:40:50.969Z,100325.98
2019-03-27T00:50:52.685Z,100316.86
2019-03-27T01:01:03.301Z,100323.43
2019-03-27T01:11:06.666Z,100323.05
2019-03-27T01:21:07.466Z,100329.20
2019-03-27T01:31:08.227Z,100324.94
2019-03-27T01:41:08.886Z,100324.28
2019-03-27T01:51:09.739Z,100330.38
2019-03-27T02:01:10.485Z,100320.40
2019-03-27T02:11:11.201Z,100324.64
2019-03-27T02:21:12.023Z,100323.31
2019-03-27T02:31:12.772Z,100323.25
2019-03-27T02:41:13.456Z,100327.84
2019-03-27T02:51:14.128Z,100331.03
2019-03-27T03:01:14.944Z,100329.97
2019-03-27T03:11:15.630Z,100332.65
2019-03-27T03:21:16.360Z,100332.61
2019-03-27T03:31:17.275Z,100338.47
2019-03-27T03:41:17.921Z,100337.66
2019-03-27T03:51:18.653Z,100338.27
2019-03-27T04:01:20.835Z,100345.41
2019-03-27T04:11:21.624Z,100355.14
2019-03-27T04:21:22.366Z,100363.75
2019-03-27T04:31:29.187Z,100362.18
2019-03-27T04:41:29.904Z,100369.15
2019-03-27T04:51:30.722Z,100372.80
2019-03-27T05:01:31.611Z,100384.36
2019-03-27T05:11:32.347Z,100381.63
2019-03-27T05:21:34.316Z,100391.83
2019-03-27T05:31:37.220Z,100395.42
2019-03-27T05:41:38.960Z,100409.52
2019-03-27T05:51:45.734Z,100412.16
2019-03-27T06:01:48.411Z,100415.94
2019-03-27T06:11:49.238Z,100436.53
2019-03-27T06:21:50.913Z,100443.30
2019-03-27T06:31:51.701Z,100470.91
2019-03-27T06:41:53.452Z,100473.91
2019-03-27T06:51:57.269Z,100467.69
2019-03-27T07:01:58.052Z,100474.03
2019-03-27T07:11:59.723Z,100482.30
2019-03-27T07:22:00.459Z,100496.95
2019-03-27T07:32:05.226Z,100493.75
2019-03-27T07:42:07.338Z,100510.70
2019-03-27T07:52:08.104Z,100504.94
2019-03-27T08:02:08.872Z,100522.80
2019-03-27T08:12:09.597Z,100524.97
2019-03-27T08:22:10.317Z,100519.09
2019-03-27T08:32:11.084Z,100539.52
2019-03-27T08:42:11.821Z,100533.21
2019-03-27T08:52:12.659Z,100535.94
2019-03-27T09:02:13.431Z,100532.25
2019-03-27T09:12:15.229Z,100528.60
2019-03-27T09:22:16.246Z,100527.22
2019-03-27T09:32:17.031Z,100539.59
2019-03-27T09:42:18.960Z,100534.85
2019-03-27T09:52:21.644Z,100547.14
2019-03-27T10:02:22.391Z,100547.36
2019-03-27T10:12:23.048Z,100546.42
2019-03-27T10:22:24.752Z,100544.23
2019-03-27T10:32:25.541Z,100535.75
2019-03-27T10:42:28.399Z,100538.63
2019-03-27T10:52:31.084Z,100528.81
2019-03-27T11:02:31.931Z,100533.95
2019-03-27T11:12:34.036Z,100525.02
2019-03-27T11:22:34.802Z,100525.02
2019-03-27T11:32:41.717Z,100543.48
2019-03-27T11:42:42.453Z,100542.70
2019-03-27T11:52:44.206Z,100539.78
2019-03-27T12:02:46.048Z,100544.85
2019-03-27T12:12:48.252Z,100540.59
2019-03-27T12:22:57.933Z,100548.30
2019-03-27T12:32:58.992Z,100543.52
2019-03-27T12:42:59.689Z,100531.48
2019-03-27T12:53:02.815Z,100525.64
2019-03-27T13:03:03.701Z,100513.72
2019-03-27T13:13:07.232Z,100507.16
2019-03-27T13:23:08.268Z,100511.20
2019-03-27T13:33:10.975Z,100495.66
2019-03-27T13:43:11.717Z,100508.54
2019-03-27T13:53:12.372Z,100495.68
2019-03-27T14:03:13.124Z,100493.68
2019-03-27T14:13:14.813Z,100489.91
2019-03-27T14:23:15.567Z,100483.72
2019-03-27T14:33:16.617Z,100477.64
2019-03-27T14:43:17.317Z,100481.83
2019-03-27T14:53:27.067Z,100473.55
2019-03-27T15:03:27.781Z,100478.96
2019-03-27T15:13:34.627Z,100478.13
2019-03-27T15:23:36.420Z,100477.43
2019-03-27T15:33:37.063Z,100470.63
2019-03-27T15:43:37.899Z,100464.53
2019-03-27T15:53:38.606Z,100464.06
2019-03-27T16:03:39.383Z,100459.40
2019-03-27T16:13:40.062Z,100464.47
2019-03-27T16:23:47.509Z,100473.28
2019-03-27T16:33:48.314Z,100469.88
2019-03-27T16:43:49.234Z,100470.48
2019-03-27T16:53:51.858Z,100472.97
2019-03-27T17:03:52.645Z,100473.02
2019-03-27T17:13:53.384Z,100477.37
2019-03-27T17:23:55.157Z,100481.23
2019-03-27T17:33:55.870Z,100495.17
2019-03-27T17:43:56.646Z,100511.37
2019-03-27T17:53:59.483Z,100507.28
2019-03-27T18:04:01.209Z,100513.33
2019-03-27T18:14:03.913Z,100524.69
2019-03-27T18:24:04.654Z,100529.11
2019-03-27T18:34:06.506Z,100538.30
2019-03-27T18:44:07.247Z,100550.08
2019-03-27T18:54:07.975Z,100558.00
2019-03-27T19:04:11.911Z,100556.08
2019-03-27T19:14:15.666Z,100569.06
2019-03-27T19:24:17.187Z,100571.27
2019-03-27T19:34:17.892Z,100576.03
2019-03-27T19:44:18.690Z,100574.73
2019-03-27T19:54:27.058Z,100581.80
2019-03-27T20:04:21.952Z,100579.80
2019-03-27T20:14:29.159Z,100593.45
2019-03-27T20:24:40.482Z,100598.16
2019-03-27T20:34:32.942Z,100599.31
2019-03-27T20:44:33.813Z,100597.13
2019-03-27T20:54:34.641Z,100599.22
2019-03-27T21:04:35.701Z,100597.38
2019-03-27T21:14:36.545Z,100598.45
2019-03-27T21:24:37.221Z,100597.77
2019-03-27T21:34:37.887Z,100601.63
2019-03-27T21:44:38.578Z,100614.86
2019-03-27T21:54:39.277Z,100620.68
2019-03-27T22:04:40.154Z,100627.36
2019-03-27T22:14:41.378Z,100640.47
2019-03-27T22:24:42.142Z,100653.83
2019-03-27T22:34:44.363Z,100652.70
2019-03-27T22:44:48.102Z,100657.82
2019-03-27T22:54:49.188Z,100675.48
2019-03-27T23:04:50.074Z,100672.38
2019-03-27T23:14:51.037Z,100664.70
2019-03-27T23:24:51.937Z,100670.11
2019-03-27T23:34:52.758Z,100674.23
2019-03-27T23:44:53.763Z,100674.07
2019-03-27T23:54:54.574Z,100671.76
